Portada
METAR-TAF:

METAR-TAF

Aeroports :

Hyderabad, Índia

latitud: 17-27N, longitud: 078-28E, altitud: 530 m

Observació

L'informe es va fer fa 22 minuts, a les 14:00 UTC
Vent 1 kt amb direcció variable
Temperatura 26°C
Humitat 84%
Pressió 1011 hPa
Visibilitat: 6000 m
Núvols disperses a una alçada de 2000 ft
Núvols disperses a una alçada de 2500 ft
Escasses núvols a una alçada de 3000 ft, Cumulonimbus.

METAR: VOHY 191400Z VRB01KT 6000 SCT020 SCT025 FEW030CB 26/23 Q1011 NOSIG

Hora: 19:52 (14:22 UTC)

Pronòstic

L'informe es va fer fa 3 hores i 22 minuts, a les 11:00 UTC
Pronòstic vàlid del 19 a les 12 UTC al 19 a les 21 UTC
Vent 5 kt del Est/Sud-Est
Visibilitat: 5000 m
Núvols disperses a una alçada de 2000 ft
Núvols disperses a una alçada de 10000 ft
calitja
Temporalment
l' 19 a les 12 UTC al 19 a les 15 UTC
Escasses núvols a una alçada de 3000 ft, Cumulonimbus.

TAF: VOHY 191100Z 1912/1921 12005KT 5000 HZ SCT020 SCT100 TEMPO 1912/1915 FEW030CB

Observacions i pronòstics meteorològics de més de 4000 aeroports (METAR i TAF).

Les estacions disponibles són els punts grocs i vermells al mapa.

Posi el ratolí al punt desitjat per veure el nom de l'estació.

Feu clic per veure les observacions i els pronòstics meteorològics.

Per canviar el mapa: feu clic els botons verds amb una creu de color negre per apropar; al botó verd amb un guió per allunyar la imatge; o en les fletxes verdes per a mapes adjacents.


METAR-TAF: